Time;durP1;ratioP1;P1;durP2;ratioP2;P2;SDS_P1;SDS_P2;PMS_P1;PMS_P2;Temp;Humidity;BMP_temperature;BMP_pressure;BME280_temperature;BME280_humidity;BME280_pressure;Samples;Min_cycle;Max_cycle;Signal;HPM_P1;HPM_P2
2022/03/22 00:01:47;;;;;;;45.33;19.73;;;;;;;6.92;37.10;101206.84;4390006;80;28634;-77
2022/03/22 00:07:48;;;;;;;41.70;19.90;;;;;;;6.99;37.35;101201.22;4387792;81;28497;-81
2022/03/22 00:13:50;;;;;;;45.60;20.52;;;;;;;6.62;37.96;101203.54;4355340;81;28817;-80
2022/03/22 00:19:51;;;;;;;42.67;20.02;;;;;;;6.63;37.63;101207.89;4360277;80;43855;-81
2022/03/22 00:25:53;;;;;;;40.92;19.35;;;;;;;6.55;37.92;101206.80;4372102;81;28730;-79
2022/03/22 00:31:56;;;;;;;46.68;20.52;;;;;;;6.48;37.38;101200.89;4386222;80;28527;-79
2022/03/22 00:37:59;;;;;;;40.78;19.15;;;;;;;6.27;38.15;101208.20;4380632;81;28508;-80
2022/03/22 00:44:00;;;;;;;45.03;21.23;;;;;;;6.22;38.37;101209.63;4384373;80;43714;-79
2022/03/22 00:50:01;;;;;;;45.25;20.27;;;;;;;6.29;38.13;101205.36;4368996;81;43710;-78
2022/03/22 00:56:04;;;;;;;48.17;21.15;;;;;;;6.18;38.04;101198.88;4387534;81;44056;-77
2022/03/22 01:02:08;;;;;;;48.92;21.68;;;;;;;6.06;38.77;101207.09;4366978;79;28515;-77
2022/03/22 01:08:13;;;;;;;46.90;20.82;;;;;;;6.20;38.13;101198.27;4386973;81;28476;-78
2022/03/22 01:14:16;;;;;;;47.60;21.48;;;;;;;6.05;38.51;101207.27;4393934;81;28488;-76
2022/03/22 01:20:21;;;;;;;46.15;20.92;;;;;;;5.95;39.53;101204.59;4391947;81;43750;-76
2022/03/22 01:26:21;;;;;;;50.38;22.42;;;;;;;5.82;39.17;101203.58;4339193;81;28542;-76
2022/03/22 01:32:23;;;;;;;49.08;21.27;;;;;;;5.89;39.41;101202.52;4364160;81;44040;-76
2022/03/22 01:38:25;;;;;;;51.25;21.37;;;;;;;5.57;39.89;101200.09;4379230;80;28476;-76
2022/03/22 01:44:28;;;;;;;46.35;21.80;;;;;;;5.79;39.39;101194.53;4368143;81;28471;-77
2022/03/22 01:50:30;;;;;;;46.00;20.77;;;;;;;5.70;39.62;101189.08;4359312;81;43757;-76
2022/03/22 01:56:31;;;;;;;48.80;21.52;;;;;;;5.67;40.59;101196.05;4388915;81;44416;-77
2022/03/22 02:08:52;;;;;;;46.20;20.92;;;;;;;5.58;40.19;101190.25;4389154;81;43773;-77
2022/03/22 02:14:53;;;;;;;50.28;21.68;;;;;;;5.40;40.92;101187.50;4386005;81;44213;-76
2022/03/22 02:20:56;;;;;;;49.95;21.95;;;;;;;5.40;40.73;101180.83;4327189;82;28519;-76
2022/03/22 02:26:57;;;;;;;53.28;22.37;;;;;;;5.26;41.05;101190.97;4345305;81;44073;-77
2022/03/22 02:33:01;;;;;;;51.00;23.25;;;;;;;5.15;40.99;101183.10;4323690;82;44412;-78
2022/03/22 02:39:02;;;;;;;45.73;21.52;;;;;;;5.26;40.47;101182.97;4330900;82;44175;-78
2022/03/22 02:45:05;;;;;;;46.68;21.57;;;;;;;5.11;41.40;101188.38;4331001;82;28542;-78
2022/03/22 02:51:06;;;;;;;48.30;20.62;;;;;;;5.20;41.44;101190.67;4377484;81;43781;-79
2022/03/22 02:57:08;;;;;;;50.20;22.02;;;;;;;5.06;41.60;101195.98;4371410;81;44232;-78
2022/03/22 03:03:09;;;;;;;44.40;20.43;;;;;;;4.98;41.86;101192.66;4368718;81;43786;-77
2022/03/22 03:09:12;;;;;;;50.28;21.23;;;;;;;4.92;42.15;101202.58;4344400;79;43554;-77
2022/03/22 03:15:13;;;;;;;44.30;20.55;;;;;;;4.86;42.41;101219.47;4369722;79;43732;-76
2022/03/22 03:21:15;;;;;;;50.28;21.55;;;;;;;5.03;42.27;101210.42;4380330;80;44469;-75
2022/03/22 03:27:17;;;;;;;49.25;20.57;;;;;;;4.77;43.03;101220.30;4408144;81;44927;-76
2022/03/22 03:33:18;;;;;;;51.35;20.68;;;;;;;4.76;43.13;101219.95;4408838;80;43886;-76
2022/03/22 03:39:19;;;;;;;51.58;21.57;;;;;;;4.73;43.33;101216.23;4388721;81;43731;-75
2022/03/22 03:51:41;;;;;;;47.90;20.95;;;;;;;4.67;43.54;101212.78;4415747;80;44123;-75
2022/03/22 03:57:44;;;;;;;49.58;21.85;;;;;;;4.57;43.70;101218.11;4430979;80;44424;-75
2022/03/22 04:03:47;;;;;;;53.15;21.75;;;;;;;4.53;43.66;101222.02;4400882;80;44087;-76
2022/03/22 04:09:49;;;;;;;55.23;23.38;;;;;;;4.43;44.17;101223.34;4443307;80;44130;-76
2022/03/22 04:15:52;;;;;;;54.20;24.72;;;;;;;4.58;43.58;101228.64;4439952;80;43669;-76
2022/03/22 04:21:53;;;;;;;56.70;23.90;;;;;;;4.54;43.76;101235.72;4391306;81;44087;-76
2022/03/22 04:34:14;;;;;;;62.38;24.37;;;;;;;4.24;45.48;101233.46;4340328;81;43767;-75
2022/03/22 04:40:17;;;;;;;58.23;22.22;;;;;;;4.16;45.64;101233.64;4339336;81;44055;-82
2022/03/22 04:46:19;;;;;;;56.33;21.35;;;;;;;4.10;46.64;101238.66;4385452;81;44122;-77
2022/03/22 04:58:41;;;;;;;57.15;21.80;;;;;;;4.58;44.67;101249.10;4379781;81;44138;-79
2022/03/22 05:04:43;;;;;;;57.30;21.60;;;;;;;4.44;45.21;101251.19;4356176;81;44097;-77
2022/03/22 05:10:44;;;;;;;52.83;23.22;;;;;;;4.46;45.40;101253.22;4321230;81;44066;-76
2022/03/22 05:16:45;;;;;;;57.60;22.77;;;;;;;4.53;44.74;101252.65;4350054;81;44116;-77
2022/03/22 05:22:48;;;;;;;60.23;22.37;;;;;;;4.41;45.46;101259.42;4329100;80;44135;-78
2022/03/22 05:28:49;;;;;;;54.48;22.90;;;;;;;4.68;45.64;101249.97;4355295;81;44103;-85
2022/03/22 05:34:50;;;;;;;63.80;26.05;;;;;;;4.62;45.47;101245.68;4374741;81;42937;-85
2022/03/22 05:40:53;;;;;;;72.10;28.05;;;;;;;4.92;45.67;101246.05;4360131;80;44073;-85
2022/03/22 05:46:58;;;;;;;65.67;25.95;;;;;;;5.28;45.39;101241.48;4363904;80;43058;-83
2022/03/22 05:52:58;;;;;;;62.60;25.80;;;;;;;5.41;44.91;101244.69;4369201;80;42945;-85
2022/03/22 05:59:00;;;;;;;62.55;26.48;;;;;;;5.55;44.61;101247.92;4364351;81;43291;-84
2022/03/22 06:05:01;;;;;;;70.22;28.98;;;;;;;5.99;43.66;101255.39;4365162;80;44123;-83
2022/03/22 06:11:02;;;;;;;68.35;32.38;;;;;;;6.10;43.26;101258.39;4374740;80;44124;-82
2022/03/22 06:17:04;;;;;;;65.72;28.17;;;;;;;6.40;42.84;101259.95;4399756;79;28524;-79
2022/03/22 06:23:08;;;;;;;67.67;28.50;;;;;;;6.89;42.22;101267.32;4398096;79;28529;-80
2022/03/22 06:29:10;;;;;;;62.10;28.47;;;;;;;6.86;42.63;101274.28;4402941;79;28485;-78
2022/03/22 06:35:16;;;;;;;75.40;31.42;;;;;;;7.34;41.03;101274.41;4397016;79;28496;-83
2022/03/22 06:41:17;;;;;;;69.07;31.85;;;;;;;7.38;40.78;101274.42;4382623;80;28516;-82
2022/03/22 06:47:19;;;;;;;62.58;28.57;;;;;;;7.42;40.63;101282.17;4393413;80;28489;-80
2022/03/22 06:53:21;;;;;;;68.33;29.82;;;;;;;7.59;40.23;101279.94;4398416;80;28522;-81
2022/03/22 06:59:23;;;;;;;71.67;31.05;;;;;;;8.76;38.48;101278.70;4453383;80;28618;-81
2022/03/22 07:05:25;;;;;;;68.95;30.72;;;;;;;8.45;38.88;101282.78;4411004;80;28549;-82
2022/03/22 07:17:46;;;;;;;78.20;33.23;;;;;;;8.58;38.38;101281.52;4445606;78;28441;-82
2022/03/22 07:23:47;;;;;;;75.22;31.15;;;;;;;8.90;38.25;101287.96;4391232;80;28564;-82
2022/03/22 07:29:50;;;;;;;76.92;32.28;;;;;;;9.16;37.80;101291.86;4421134;80;28450;-82
2022/03/22 07:35:51;;;;;;;70.08;30.95;;;;;;;9.28;37.74;101292.88;4433972;79;28530;-81
2022/03/22 07:41:53;;;;;;;74.05;32.28;;;;;;;9.41;37.71;101295.88;4378651;79;28449;-84
2022/03/22 07:47:55;;;;;;;68.67;30.52;;;;;;;9.70;37.13;101293.71;4385818;81;28527;-83
2022/03/22 07:53:57;;;;;;;79.30;33.92;;;;;;;9.84;36.68;101285.44;4444270;79;28623;-83
2022/03/22 07:59:58;;;;;;;67.47;30.43;;;;;;;10.04;36.73;101284.56;4406086;80;28503;-82
2022/03/22 08:06:00;;;;;;;69.17;29.82;;;;;;;10.39;36.04;101286.98;4308178;81;28541;-82
2022/03/22 08:12:04;;;;;;;71.05;31.77;;;;;;;10.48;35.94;101279.23;4348606;81;28494;-81
2022/03/22 08:18:05;;;;;;;70.87;31.15;;;;;;;10.78;35.80;101285.30;4351045;81;28549;-82
2022/03/22 08:24:07;;;;;;;71.60;30.62;;;;;;;11.03;35.61;101279.25;4356780;81;28480;-82
2022/03/22 08:30:12;;;;;;;68.20;29.52;;;;;;;11.32;35.11;101278.19;4334905;81;28469;-82
2022/03/22 08:36:16;;;;;;;59.45;26.02;;;;;;;11.31;34.37;101274.67;4377991;81;28508;-82
2022/03/22 08:42:17;;;;;;;56.80;24.55;;;;;;;11.76;33.38;101265.84;4357969;81;28511;-82
2022/03/22 08:48:19;;;;;;;46.08;23.07;;;;;;;11.82;33.33;101266.47;4375943;81;28494;-83
2022/03/22 08:54:21;;;;;;;50.90;23.22;;;;;;;11.86;32.25;101264.54;4332495;82;28530;-83
2022/03/22 09:00:24;;;;;;;46.63;20.92;;;;;;;12.27;32.35;101257.03;4333390;81;28468;-83
2022/03/22 09:06:25;;;;;;;44.05;20.62;;;;;;;12.57;32.02;101254.81;4359458;79;28484;-82
2022/03/22 09:12:27;;;;;;;47.23;22.35;;;;;;;12.66;31.75;101250.98;4407926;79;28471;-82
2022/03/22 09:18:29;;;;;;;40.15;19.45;;;;;;;12.96;31.47;101238.20;4449379;80;28535;-82
2022/03/22 09:24:34;;;;;;;37.93;18.95;;;;;;;13.13;30.90;101242.50;4359847;81;28476;-82
2022/03/22 09:30:38;;;;;;;39.20;18.45;;;;;;;13.47;30.69;101230.13;4397753;80;28500;-82
2022/03/22 09:36:39;;;;;;;38.05;18.80;;;;;;;13.54;30.81;101218.86;4376121;81;28446;-82
2022/03/22 09:42:45;;;;;;;40.75;19.00;;;;;;;14.05;30.69;101216.34;4396637;80;28509;-84
2022/03/22 09:48:48;;;;;;;35.28;18.07;;;;;;;14.27;30.38;101210.84;4377481;80;28528;-82
2022/03/22 09:54:49;;;;;;;39.67;17.37;;;;;;;14.22;29.93;101205.19;4345179;81;28486;-82
2022/03/22 10:00:51;;;;;;;33.73;17.02;;;;;;;14.54;29.56;101194.67;4366584;81;28452;-84
2022/03/22 10:06:57;;;;;;;35.75;17.10;;;;;;;14.72;29.26;101196.81;4380299;81;28445;-83
2022/03/22 10:13:02;;;;;;;35.35;17.50;;;;;;;15.08;28.89;101192.05;4362410;81;28533;-82
2022/03/22 10:19:09;;;;;;;35.20;18.82;;;;;;;15.11;29.07;101190.81;4378160;81;28477;-82
2022/03/22 10:25:11;;;;;;;36.85;19.67;;;;;;;15.36;28.82;101185.59;4374682;81;28486;-84
2022/03/22 10:31:12;;;;;;;39.55;19.65;;;;;;;15.40;28.52;101173.27;4446274;80;28457;-83
2022/03/22 10:37:17;;;;;;;35.95;19.10;;;;;;;15.40;28.42;101180.05;4422506;80;28537;-83
2022/03/22 10:43:23;;;;;;;40.98;20.57;;;;;;;15.64;28.83;101171.46;4402891;80;28517;-82
2022/03/22 10:49:24;;;;;;;40.13;19.63;;;;;;;15.78;28.27;101169.55;4405368;80;28571;-82
2022/03/22 10:55:27;;;;;;;39.67;19.12;;;;;;;15.88;28.50;101169.94;4403467;80;28504;-83
2022/03/22 11:01:29;;;;;;;36.25;17.52;;;;;;;16.00;28.29;101160.64;4402659;80;28578;-82
2022/03/22 11:07:34;;;;;;;36.00;18.12;;;;;;;16.23;28.14;101153.85;4448310;80;28509;-82
2022/03/22 11:13:36;;;;;;;35.13;17.82;;;;;;;16.69;28.08;101148.64;4375337;81;28493;-82
2022/03/22 11:19:38;;;;;;;34.60;16.75;;;;;;;16.97;27.73;101135.16;4357468;81;28476;-82
2022/03/22 11:25:39;;;;;;;30.05;16.57;;;;;;;17.00;27.50;101130.66;4343981;81;28524;-82
2022/03/22 11:31:42;;;;;;;32.30;16.93;;;;;;;17.09;27.17;101120.88;4356124;81;28466;-83
2022/03/22 11:37:49;;;;;;;30.92;16.55;;;;;;;17.23;27.52;101112.91;4349993;81;28484;-84
2022/03/22 11:43:50;;;;;;;35.00;16.45;;;;;;;17.49;27.02;101109.59;4364950;81;28589;-83
2022/03/22 11:50:01;;;;;;;29.23;15.35;;;;;;;17.25;26.94;101104.52;4345416;81;28506;-82
2022/03/22 11:56:03;;;;;;;30.62;15.65;;;;;;;17.43;27.29;101088.73;4307733;81;28459;-82
2022/03/22 12:02:06;;;;;;;28.70;16.32;;;;;;;17.78;26.91;101081.83;4360427;81;28504;-83
2022/03/22 12:08:14;;;;;;;30.75;15.60;;;;;;;17.51;27.00;101075.38;4313689;81;28508;-84
2022/03/22 12:14:28;;;;;;;27.27;14.15;;;;;;;18.30;26.76;101062.30;4359389;81;28528;-84
2022/03/22 12:20:29;;;;;;;24.63;12.13;;;;;;;18.14;26.18;101052.91;4360803;81;28550;-82
2022/03/22 12:26:31;;;;;;;29.67;14.85;;;;;;;18.23;26.20;101046.08;4313132;81;28918;-81
2022/03/22 12:32:32;;;;;;;25.65;13.72;;;;;;;18.39;26.12;101036.40;4357784;81;28521;-82
2022/03/22 12:38:34;;;;;;;27.48;14.23;;;;;;;18.49;26.24;101034.44;4437803;79;28496;-81
2022/03/22 12:44:36;;;;;;;23.92;12.33;;;;;;;18.59;25.99;101024.34;4421663;80;28513;-82
2022/03/22 12:50:37;;;;;;;23.27;11.40;;;;;;;18.68;25.96;101006.55;4346197;81;28480;-83
2022/03/22 12:56:46;;;;;;;22.40;12.20;;;;;;;18.71;26.06;101005.80;4336107;80;28495;-83
2022/03/22 13:02:49;;;;;;;21.07;10.50;;;;;;;18.76;25.69;101003.19;4358079;80;28497;-81
2022/03/22 13:15:14;;;;;;;21.55;10.88;;;;;;;19.05;25.69;100986.40;4427279;80;28522;-82
2022/03/22 13:21:23;;;;;;;22.05;10.80;;;;;;;19.01;25.32;100980.34;4343211;81;28518;-81
2022/03/22 13:27:24;;;;;;;21.17;10.03;;;;;;;19.22;25.27;100972.87;4438474;79;28517;-80
2022/03/22 13:33:33;;;;;;;18.87;10.08;;;;;;;19.16;25.37;100971.63;4405228;80;28464;-81
2022/03/22 13:39:36;;;;;;;17.02;9.10;;;;;;;19.21;25.28;100966.28;4358771;81;28507;-80
2022/03/22 13:45:49;;;;;;;15.78;9.08;;;;;;;19.40;25.03;100962.02;4371586;81;28483;-81
2022/03/22 13:51:50;;;;;;;16.97;8.60;;;;;;;19.42;24.62;100958.51;4379707;81;28494;-83
2022/03/22 13:57:56;;;;;;;14.45;8.05;;;;;;;19.46;25.04;100955.05;4381575;79;28489;-82
2022/03/22 14:03:57;;;;;;;15.80;7.90;;;;;;;19.37;24.33;100949.69;4361991;81;28532;-82
2022/03/22 14:09:59;;;;;;;15.23;7.40;;;;;;;19.53;24.21;100935.80;4383619;79;28528;-81
2022/03/22 14:16:00;;;;;;;12.65;7.50;;;;;;;19.23;24.32;100939.60;4391464;80;28460;-82
2022/03/22 14:22:02;;;;;;;15.10;8.78;;;;;;;19.53;24.72;100924.08;4354852;81;28520;-81
2022/03/22 14:28:06;;;;;;;16.12;8.45;;;;;;;19.56;24.17;100920.86;4371046;81;28450;-81
2022/03/22 14:34:07;;;;;;;15.32;7.72;;;;;;;19.56;23.99;100922.22;4384167;81;28531;-81
2022/03/22 14:40:10;;;;;;;17.85;7.60;;;;;;;19.64;24.25;100916.37;4351988;81;28564;-81
2022/03/22 14:46:12;;;;;;;13.15;7.40;;;;;;;19.74;24.23;100917.07;4371997;79;28528;-81
2022/03/22 14:58:57;;;;;;;15.00;7.37;;;;;;;19.63;23.86;100901.08;4375951;80;28582;-83
2022/03/22 15:04:56;;;;;;;13.78;7.47;;;;;;;19.77;24.07;100895.58;4377286;81;28437;-81
2022/03/22 15:10:58;;;;;;;15.63;7.35;;;;;;;19.61;23.86;100897.74;4412688;79;28517;-81
2022/03/22 15:17:00;;;;;;;13.15;7.78;;;;;;;19.68;23.74;100882.05;4365901;80;28519;-81
2022/03/22 15:23:07;;;;;;;13.88;8.43;;;;;;;19.79;24.03;100881.70;4401181;81;28480;-81
2022/03/22 15:29:10;;;;;;;19.12;9.65;;;;;;;19.67;23.74;100883.12;4385026;81;28504;-82
2022/03/22 15:35:13;;;;;;;19.17;9.33;;;;;;;19.80;24.13;100880.62;4417763;80;28458;-81
2022/03/22 15:41:15;;;;;;;15.95;8.70;;;;;;;19.62;24.15;100874.84;4364148;79;28484;-81
2022/03/22 15:47:16;;;;;;;17.42;10.00;;;;;;;19.53;23.90;100866.80;4387378;80;28521;-80
2022/03/22 15:53:18;;;;;;;22.67;11.05;;;;;;;19.60;23.97;100869.66;4377572;80;28485;-81
2022/03/22 15:59:20;;;;;;;17.32;8.88;;;;;;;19.60;24.37;100868.81;4415915;79;28552;-81
2022/03/22 16:05:22;;;;;;;18.50;9.70;;;;;;;19.51;24.33;100866.48;4411278;80;28503;-81
2022/03/22 16:11:23;;;;;;;18.52;8.88;;;;;;;19.45;24.21;100868.84;4379354;80;28461;-81
2022/03/22 16:17:26;;;;;;;17.73;8.25;;;;;;;19.15;24.55;100867.21;4393985;81;28468;-82
2022/03/22 16:23:28;;;;;;;22.32;9.63;;;;;;;19.15;24.50;100859.55;4375250;81;28502;-81
2022/03/22 16:29:29;;;;;;;19.85;8.50;;;;;;;19.14;24.77;100862.83;4385968;81;28534;-80
2022/03/22 16:42:04;;;;;;;17.35;8.05;;;;;;;18.80;25.07;100853.16;4380746;81;28521;-78
2022/03/22 16:48:12;;;;;;;18.85;9.53;;;;;;;18.58;25.39;100853.78;4364771;79;28529;-84
2022/03/22 16:54:19;;;;;;;20.70;9.98;;;;;;;18.41;25.56;100850.16;4376626;79;28488;-80
2022/03/22 17:00:23;;;;;;;16.67;8.45;;;;;;;18.38;25.54;100856.91;4366862;79;28477;-80
2022/03/22 17:06:27;;;;;;;17.82;8.55;;;;;;;18.17;25.78;100864.61;4372633;79;28574;-85
2022/03/22 17:12:33;;;;;;;19.55;9.25;;;;;;;18.10;25.96;100870.70;4379603;79;28516;-81
2022/03/22 17:18:41;;;;;;;18.73;8.40;;;;;;;17.86;26.21;100864.37;4386934;79;28549;-83
2022/03/22 17:24:39;;;;;;;18.25;9.38;;;;;;;17.77;26.42;100875.62;4404911;79;28536;-84
2022/03/22 17:30:43;;;;;;;18.50;9.20;;;;;;;17.52;26.55;100869.02;4393160;79;28509;-81
2022/03/22 17:36:46;;;;;;;24.00;8.98;;;;;;;17.32;26.73;100872.01;4367896;81;28457;-85
2022/03/22 17:42:49;;;;;;;19.27;8.63;;;;;;;17.00;27.51;100875.80;4373387;79;28465;-87
2022/03/22 17:48:50;;;;;;;22.30;9.70;;;;;;;16.80;27.70;100885.50;4403883;79;28492;-84
2022/03/22 17:54:52;;;;;;;24.98;9.23;;;;;;;16.55;28.02;100877.73;4395356;79;28499;-94
2022/03/22 18:01:00;;;;;;;20.48;9.08;;;;;;;16.19;28.58;100875.81;4385173;79;28572;-89
2022/03/22 18:07:02;;;;;;;22.50;9.53;;;;;;;15.89;28.82;100878.14;4367676;79;28523;-86
2022/03/22 18:13:06;;;;;;;19.62;8.83;;;;;;;15.69;28.98;100887.78;4379453;80;28500;-87
2022/03/22 18:19:07;;;;;;;24.35;9.83;;;;;;;15.44;29.65;100891.80;4322672;81;28476;-90
2022/03/22 18:25:13;;;;;;;25.17;9.93;;;;;;;15.41;29.60;100894.45;4401386;80;28620;-88
2022/03/22 18:31:17;;;;;;;23.40;9.00;;;;;;;15.22;29.85;100888.07;4413200;81;28500;-87
2022/03/22 18:37:23;;;;;;;;;;;;;;;14.99;30.56;100900.27;4307031;81;28510;-85
2022/03/22 18:43:24;;;;;;;29.12;10.43;;;;;;;14.96;30.72;100890.38;4412434;80;20546;-86
2022/03/22 18:49:41;;;;;;;;;;;;;;;;;;;;;
2022/03/22 18:55:47;;;;;;;24.00;11.28;;;;;;;14.53;30.92;100899.88;4374814;80;28562;-86
2022/03/22 19:02:09;;;;;;;23.62;10.72;;;;;;;14.41;30.89;100895.09;4367854;81;106900;-82
2022/03/22 19:08:16;;;;;;;21.40;9.80;;;;;;;14.36;31.26;100894.90;4369726;79;28505;-82
2022/03/22 19:14:19;;;;;;;22.80;10.43;;;;;;;14.03;31.76;100898.47;4387145;79;28466;-85
2022/03/22 19:20:31;;;;;;;19.67;9.70;;;;;;;13.77;32.36;100904.16;4384843;79;28517;-85
2022/03/22 19:26:38;;;;;;;27.17;10.38;;;;;;;13.54;32.72;100904.03;4382868;79;29132;-85
2022/03/22 19:39:03;;;;;;;26.70;10.68;;;;;;;13.10;33.84;100911.05;4389876;79;28489;-88
2022/03/22 19:45:06;;;;;;;23.15;10.70;;;;;;;12.92;33.74;100907.56;4389444;79;28509;-86
2022/03/22 19:51:08;;;;;;;26.85;10.23;;;;;;;12.70;34.24;100902.77;4379694;80;28543;-84
2022/03/22 19:57:11;;;;;;;27.15;9.63;;;;;;;12.67;34.81;100903.17;4348152;79;28515;-83
2022/03/22 20:03:13;;;;;;;25.45;10.70;;;;;;;12.49;34.51;100908.56;4373986;81;28501;-82
2022/03/22 20:09:19;;;;;;;20.92;10.18;;;;;;;12.33;35.08;100906.16;4397097;79;28554;-80
2022/03/22 20:15:21;;;;;;;27.40;12.53;;;;;;;12.06;35.56;100912.18;4421853;80;28548;-85
2022/03/22 20:21:23;;;;;;;30.55;11.90;;;;;;;12.00;35.39;100916.98;4379188;80;28600;-82
2022/03/22 20:27:25;;;;;;;33.75;14.93;;;;;;;12.03;36.09;100910.38;4376120;79;28540;-82
2022/03/22 20:33:26;;;;;;;27.87;11.33;;;;;;;11.85;36.49;100922.45;4366431;81;28500;-82
2022/03/22 20:39:28;;;;;;;29.02;13.70;;;;;;;11.48;36.79;100925.70;4429163;80;28543;-84
2022/03/22 20:45:30;;;;;;;27.82;11.70;;;;;;;11.22;37.33;100917.12;4423353;80;28477;-85
2022/03/22 20:51:32;;;;;;;28.17;11.68;;;;;;;11.00;37.50;100902.80;4429078;80;28535;-81
2022/03/22 21:03:56;;;;;;;23.85;10.90;;;;;;;10.69;38.45;100910.05;4402602;80;28506;-78
2022/03/22 21:09:57;;;;;;;24.77;9.80;;;;;;;10.39;39.00;100900.59;4396906;80;28512;-79
2022/03/22 21:15:59;;;;;;;30.27;11.55;;;;;;;10.16;39.68;100897.45;4395830;79;28543;-79
2022/03/22 21:22:00;;;;;;;35.33;13.25;;;;;;;9.86;41.65;100885.81;4365298;79;28509;-79
2022/03/22 21:28:01;;;;;;;41.88;15.88;;;;;;;9.78;42.08;100874.60;4389569;79;28474;-80
2022/03/22 21:34:03;;;;;;;49.83;15.80;;;;;;;9.64;42.42;100880.28;4375191;79;28504;-81
2022/03/22 21:40:08;;;;;;;37.58;14.05;;;;;;;9.77;42.94;100878.30;4405572;80;28485;-81
2022/03/22 21:46:10;;;;;;;38.65;15.13;;;;;;;9.91;41.28;100871.31;4389408;79;28590;-79
2022/03/22 21:52:12;;;;;;;41.70;16.73;;;;;;;9.74;42.25;100874.16;4383486;79;28504;-79
2022/03/22 21:58:14;;;;;;;42.90;15.83;;;;;;;9.72;42.37;100861.39;4385237;79;28466;-80
2022/03/22 22:04:16;;;;;;;35.78;15.40;;;;;;;9.47;43.52;100861.59;4382107;79;28964;-79
2022/03/22 22:10:17;;;;;;;36.42;15.43;;;;;;;9.34;42.85;100858.67;4395119;79;28541;-79
2022/03/22 22:16:21;;;;;;;33.00;14.07;;;;;;;9.25;43.71;100862.41;4378544;81;28532;-78
2022/03/22 22:22:26;;;;;;;43.80;19.42;;;;;;;9.02;44.25;100856.52;4390690;80;28492;-79
2022/03/22 22:28:27;;;;;;;40.25;17.77;;;;;;;8.96;44.68;100850.00;4366364;81;28511;-78
2022/03/22 22:34:28;;;;;;;40.50;16.00;;;;;;;8.91;45.48;100846.51;4393744;81;28524;-78
2022/03/22 22:40:29;;;;;;;34.50;14.87;;;;;;;8.83;44.53;100846.55;4393364;80;28542;-79
2022/03/22 22:46:30;;;;;;;37.38;16.62;;;;;;;8.63;44.90;100848.30;4404171;81;28453;-78
2022/03/22 22:52:32;;;;;;;36.03;16.05;;;;;;;8.44;45.86;100847.33;4392912;80;28503;-77
2022/03/22 22:58:34;;;;;;;42.17;17.05;;;;;;;8.16;46.73;100841.88;4391445;81;28538;-78
2022/03/22 23:04:36;;;;;;;35.25;14.90;;;;;;;8.02;46.73;100839.88;4376672;79;28536;-81
2022/03/22 23:10:37;;;;;;;37.63;16.17;;;;;;;8.04;46.85;100841.38;4365247;80;28490;-80
2022/03/22 23:16:38;;;;;;;32.05;15.03;;;;;;;7.88;46.63;100846.78;4385498;80;28477;-81
2022/03/22 23:22:40;;;;;;;36.98;15.70;;;;;;;7.72;47.65;100840.93;4380372;81;28531;-79
2022/03/22 23:28:41;;;;;;;39.18;17.07;;;;;;;8.00;46.82;100836.53;4364303;80;28456;-80
2022/03/22 23:34:42;;;;;;;39.40;18.32;;;;;;;7.97;47.52;100831.52;4364031;80;28515;-80
2022/03/22 23:40:44;;;;;;;39.50;18.65;;;;;;;8.10;47.30;100837.19;4388053;80;28497;-81
2022/03/22 23:46:45;;;;;;;42.15;18.85;;;;;;;7.85;47.02;100829.20;4382146;80;28527;-79
2022/03/22 23:52:47;;;;;;;39.67;18.67;;;;;;;7.74;47.04;100829.02;4385820;80;28486;-81
2022/03/22 23:58:48;;;;;;;49.40;20.17;;;;;;;7.34;48.25;100818.64;4363699;81;28535;-80
